createdAt,value
2023-07-15T00:00:51.093Z,46.35
2023-07-15T00:01:51.250Z,46.24
2023-07-15T00:02:51.171Z,46.24
2023-07-15T00:03:51.213Z,46.32
2023-07-15T00:04:51.195Z,46.43
2023-07-15T00:05:51.288Z,46.47
2023-07-15T00:06:51.338Z,46.37
2023-07-15T00:07:51.377Z,46.65
2023-07-15T00:08:51.413Z,46.79
2023-07-15T00:09:51.377Z,46.85
2023-07-15T00:10:51.741Z,46.89
2023-07-15T00:11:51.440Z,46.86
2023-07-15T00:12:51.615Z,46.82
2023-07-15T00:13:51.632Z,46.88
2023-07-15T00:14:51.649Z,46.95
2023-07-15T00:15:51.692Z,47.00
2023-07-15T00:16:51.713Z,47.48
2023-07-15T00:17:51.842Z,47.37
2023-07-15T00:18:51.718Z,47.49
2023-07-15T00:19:51.699Z,47.42
2023-07-15T00:20:51.745Z,47.67
2023-07-15T00:21:51.723Z,47.76
2023-07-15T00:22:51.838Z,47.87
2023-07-15T00:23:51.792Z,47.87
2023-07-15T00:24:51.870Z,48.09
2023-07-15T00:25:51.916Z,48.06
2023-07-15T00:26:51.913Z,48.19
2023-07-15T00:27:51.910Z,48.32
2023-07-15T00:28:51.959Z,48.25
2023-07-15T00:29:51.986Z,48.09
2023-07-15T00:30:52.041Z,47.93
2023-07-15T00:31:52.156Z,47.96
2023-07-15T00:32:52.190Z,48.25
2023-07-15T00:33:52.179Z,48.19
2023-07-15T00:34:52.255Z,48.41
2023-07-15T00:35:52.274Z,48.42
2023-07-15T00:36:52.303Z,48.39
2023-07-15T00:37:52.376Z,48.35
2023-07-15T00:38:52.394Z,48.56
2023-07-15T00:39:52.463Z,48.55
2023-07-15T00:40:52.525Z,48.53
2023-07-15T00:41:52.576Z,48.57
2023-07-15T00:42:52.637Z,48.64
2023-07-15T00:43:52.645Z,48.65
2023-07-15T00:44:52.698Z,48.79
2023-07-15T00:45:52.782Z,48.72
2023-07-15T00:46:52.816Z,48.78
2023-07-15T00:47:52.869Z,48.77
2023-07-15T00:48:52.930Z,48.60
2023-07-15T00:49:52.985Z,48.70
2023-07-15T00:50:53.035Z,48.72
2023-07-15T00:51:53.123Z,48.68
2023-07-15T00:52:53.179Z,48.74
2023-07-15T00:53:53.223Z,48.73
2023-07-15T00:54:53.326Z,48.65
2023-07-15T00:55:53.329Z,48.70
2023-07-15T00:56:53.404Z,48.67
2023-07-15T00:57:53.456Z,48.62
2023-07-15T00:58:53.517Z,48.63
2023-07-15T00:59:53.679Z,48.64
2023-07-15T01:00:53.625Z,48.71
2023-07-15T01:01:53.620Z,48.71
2023-07-15T01:02:53.724Z,48.61
2023-07-15T01:03:53.694Z,48.65
2023-07-15T01:04:53.711Z,48.68
2023-07-15T01:05:53.710Z,48.71
2023-07-15T01:06:53.727Z,48.70
2023-07-15T01:07:53.696Z,48.71
2023-07-15T01:08:53.734Z,48.85
2023-07-15T01:09:53.748Z,48.98
2023-07-15T01:10:54.203Z,48.94
2023-07-15T01:11:53.753Z,48.98
2023-07-15T01:12:53.754Z,49.00
2023-07-15T01:13:53.772Z,48.94
2023-07-15T01:14:53.740Z,49.30
2023-07-15T01:15:53.806Z,49.43
2023-07-15T01:16:53.721Z,49.48
2023-07-15T01:17:53.813Z,49.66
2023-07-15T01:18:53.724Z,49.51
2023-07-15T01:19:53.729Z,49.38
2023-07-15T01:20:53.755Z,49.43
2023-07-15T01:21:53.779Z,49.45
2023-07-15T01:22:53.749Z,49.27
2023-07-15T01:23:53.749Z,49.26
2023-07-15T01:24:53.765Z,49.36
2023-07-15T01:25:53.748Z,49.40
2023-07-15T01:26:53.772Z,49.49
2023-07-15T01:27:53.731Z,49.44
2023-07-15T01:28:53.771Z,49.40
2023-07-15T01:29:53.778Z,49.36
2023-07-15T01:30:53.913Z,49.31
2023-07-15T01:31:53.828Z,49.37
2023-07-15T01:32:53.895Z,49.51
2023-07-15T01:33:53.835Z,49.48
2023-07-15T01:34:53.857Z,49.54
2023-07-15T01:35:53.924Z,49.57
2023-07-15T01:36:53.952Z,49.62
2023-07-15T01:37:53.928Z,49.74
2023-07-15T01:38:53.917Z,49.67
2023-07-15T01:39:53.902Z,49.60
2023-07-15T01:40:53.953Z,49.88
2023-07-15T01:41:53.962Z,50.28
2023-07-15T01:42:53.977Z,50.38
2023-07-15T01:43:53.969Z,50.25
2023-07-15T01:44:53.978Z,50.12
2023-07-15T01:45:54.019Z,50.17
2023-07-15T01:46:54.133Z,50.28
2023-07-15T01:47:54.113Z,50.35
2023-07-15T01:48:54.106Z,50.30
2023-07-15T01:49:54.111Z,50.35
2023-07-15T01:50:54.194Z,50.34
2023-07-15T01:51:54.159Z,50.34
2023-07-15T01:52:54.186Z,50.42
2023-07-15T01:53:54.198Z,50.39
2023-07-15T01:54:54.264Z,50.51
2023-07-15T01:55:54.281Z,50.44
2023-07-15T01:56:54.322Z,50.41
2023-07-15T01:57:54.333Z,50.68
2023-07-15T01:58:54.354Z,50.56
2023-07-15T01:59:54.428Z,50.63
2023-07-15T02:00:54.582Z,50.54
2023-07-15T02:01:54.540Z,50.54
2023-07-15T02:02:54.741Z,50.53
2023-07-15T02:03:54.752Z,50.60
2023-07-15T02:04:54.669Z,50.60
2023-07-15T02:05:54.762Z,50.64
2023-07-15T02:06:54.847Z,50.60
2023-07-15T02:07:54.832Z,50.66
2023-07-15T02:08:56.679Z,50.62
2023-07-15T02:09:54.918Z,50.63
2023-07-15T02:10:54.869Z,50.66
2023-07-15T02:11:54.867Z,50.67
2023-07-15T02:12:54.856Z,50.72
2023-07-15T02:13:54.843Z,50.84
2023-07-15T02:14:54.860Z,50.70
2023-07-15T02:15:54.848Z,50.69
2023-07-15T02:16:54.900Z,50.70
2023-07-15T02:17:54.905Z,50.86
2023-07-15T02:18:54.827Z,50.79
2023-07-15T02:19:54.835Z,50.89
2023-07-15T02:20:54.875Z,50.82
2023-07-15T02:21:54.808Z,50.85
2023-07-15T02:22:54.819Z,51.04
2023-07-15T02:23:54.777Z,51.04
2023-07-15T02:24:54.806Z,51.01
2023-07-15T02:25:54.776Z,51.02
2023-07-15T02:26:55.700Z,51.07
2023-07-15T02:27:54.792Z,51.12
2023-07-15T02:28:54.778Z,51.17
2023-07-15T02:29:54.763Z,51.27
2023-07-15T02:30:54.769Z,51.06
2023-07-15T02:31:54.747Z,51.17
2023-07-15T02:32:54.769Z,51.21
2023-07-15T02:33:54.728Z,51.39
2023-07-15T02:34:54.691Z,51.46
2023-07-15T02:35:54.690Z,51.41
2023-07-15T02:36:54.702Z,51.45
2023-07-15T02:37:54.697Z,51.39
2023-07-15T02:38:54.657Z,51.39
2023-07-15T02:39:54.653Z,51.39
2023-07-15T02:40:54.674Z,51.49
2023-07-15T02:41:54.701Z,51.83
2023-07-15T02:42:54.619Z,51.72
2023-07-15T02:43:54.625Z,51.66
2023-07-15T02:44:54.640Z,51.65
2023-07-15T02:45:54.662Z,51.48
2023-07-15T02:46:54.658Z,51.49
2023-07-15T02:47:54.649Z,51.56
2023-07-15T02:48:54.650Z,51.59
2023-07-15T02:49:54.594Z,51.57
2023-07-15T02:50:54.615Z,51.54
2023-07-15T02:51:54.591Z,51.50
2023-07-15T02:52:54.578Z,51.56
2023-07-15T02:53:54.547Z,51.63
2023-07-15T02:54:54.565Z,51.73
2023-07-15T02:55:54.561Z,51.64
2023-07-15T02:56:54.573Z,51.90
2023-07-15T02:57:54.627Z,51.81
2023-07-15T02:58:54.581Z,51.66
2023-07-15T02:59:54.575Z,51.63
2023-07-15T03:00:54.608Z,51.66
2023-07-15T03:01:54.703Z,51.60
2023-07-15T03:02:54.684Z,51.50
2023-07-15T03:03:54.609Z,51.46
2023-07-15T03:04:54.682Z,51.45
2023-07-15T03:05:54.630Z,51.59
2023-07-15T03:06:54.648Z,51.77
2023-07-15T03:07:54.623Z,51.79
2023-07-15T03:08:54.652Z,51.79
2023-07-15T03:09:54.624Z,51.73
2023-07-15T03:10:54.670Z,51.92
2023-07-15T03:11:54.668Z,51.90
2023-07-15T03:12:54.671Z,51.82
2023-07-15T03:13:54.671Z,52.10
2023-07-15T03:14:54.680Z,51.93
2023-07-15T03:15:54.713Z,51.80
2023-07-15T03:16:54.757Z,51.91
2023-07-15T03:17:54.751Z,51.77
2023-07-15T03:18:54.713Z,51.80
2023-07-15T03:19:54.763Z,52.02
2023-07-15T03:20:54.715Z,51.85
2023-07-15T03:21:54.807Z,51.91
2023-07-15T03:22:54.771Z,52.07
2023-07-15T03:23:54.718Z,52.02
2023-07-15T03:24:54.725Z,52.05
2023-07-15T03:25:54.729Z,52.06
2023-07-15T03:26:54.778Z,51.75
2023-07-15T03:27:54.758Z,51.82
2023-07-15T03:28:54.785Z,51.78
2023-07-15T03:29:54.813Z,51.78
2023-07-15T03:30:54.846Z,51.74
2023-07-15T03:31:54.869Z,51.75
2023-07-15T03:32:55.081Z,51.74
2023-07-15T03:33:54.924Z,51.81
2023-07-15T03:34:54.931Z,51.84
2023-07-15T03:35:54.940Z,51.96
2023-07-15T03:36:54.942Z,51.98
2023-07-15T03:37:54.984Z,51.95
2023-07-15T03:38:54.957Z,51.92
2023-07-15T03:39:54.996Z,52.10
2023-07-15T03:40:55.028Z,52.11
2023-07-15T03:41:55.039Z,52.13
2023-07-15T03:42:55.083Z,52.06
2023-07-15T03:43:55.086Z,52.32
2023-07-15T03:44:55.127Z,52.21
2023-07-15T03:45:55.203Z,52.16
2023-07-15T03:46:55.163Z,52.17
2023-07-15T03:47:55.210Z,52.15
2023-07-15T03:48:55.197Z,52.07
2023-07-15T03:49:55.253Z,52.06
2023-07-15T03:50:55.217Z,52.12
2023-07-15T03:51:55.275Z,52.06
2023-07-15T03:52:55.265Z,52.13
2023-07-15T03:53:55.291Z,52.18
2023-07-15T03:54:55.318Z,52.15
2023-07-15T03:55:55.356Z,52.05
2023-07-15T03:56:55.385Z,52.30
2023-07-15T03:57:55.417Z,52.26
2023-07-15T03:58:55.446Z,52.21
2023-07-15T03:59:55.457Z,52.26
2023-07-15T04:00:55.450Z,52.39
2023-07-15T04:01:56.334Z,52.36
2023-07-15T04:02:55.552Z,52.50
2023-07-15T04:03:55.653Z,52.34
2023-07-15T04:04:55.597Z,52.37
2023-07-15T04:05:55.628Z,52.33
2023-07-15T04:06:55.651Z,52.37
2023-07-15T04:07:55.688Z,52.38
2023-07-15T04:08:55.747Z,52.38
2023-07-15T04:09:55.789Z,52.47
2023-07-15T04:10:55.834Z,52.44
2023-07-15T04:11:55.857Z,52.52
2023-07-15T04:12:55.857Z,52.47
2023-07-15T04:13:55.933Z,52.54
2023-07-15T04:14:55.959Z,52.56
2023-07-15T04:15:56.075Z,52.70
2023-07-15T04:16:56.057Z,52.88
2023-07-15T04:17:56.143Z,52.84
2023-07-15T04:18:56.152Z,52.80
2023-07-15T04:19:56.162Z,52.79
2023-07-15T04:20:56.280Z,52.88
2023-07-15T04:21:56.299Z,52.96
2023-07-15T04:22:56.342Z,52.99
2023-07-15T04:23:58.585Z,52.89
2023-07-15T04:24:56.414Z,52.89
2023-07-15T04:25:56.471Z,52.74
2023-07-15T04:26:56.529Z,52.73
2023-07-15T04:27:56.686Z,52.79
2023-07-15T04:28:56.642Z,52.79
2023-07-15T04:29:56.725Z,52.79
2023-07-15T04:30:56.758Z,52.76
2023-07-15T04:31:56.834Z,52.68
2023-07-15T04:32:56.880Z,52.75
2023-07-15T04:33:56.898Z,52.76
2023-07-15T04:34:56.955Z,52.73
2023-07-15T04:35:57.034Z,52.79
2023-07-15T04:36:57.117Z,52.83
2023-07-15T04:37:57.112Z,52.67
2023-07-15T04:38:57.112Z,52.65
2023-07-15T04:39:57.147Z,52.67
2023-07-15T04:40:57.229Z,52.69
2023-07-15T04:41:57.322Z,52.63
2023-07-15T04:42:57.337Z,52.60
2023-07-15T04:43:57.355Z,52.53
2023-07-15T04:44:57.354Z,52.47
2023-07-15T04:45:57.492Z,52.46
2023-07-15T04:46:57.470Z,52.44
2023-07-15T04:47:57.540Z,52.39
2023-07-15T04:48:57.550Z,52.39
2023-07-15T04:49:57.600Z,52.41
2023-07-15T04:50:57.619Z,52.39
2023-07-15T04:51:57.656Z,52.66
2023-07-15T04:52:57.680Z,52.62
2023-07-15T04:53:57.721Z,52.49
2023-07-15T04:54:57.810Z,52.54
2023-07-15T04:55:57.776Z,52.48
2023-07-15T04:56:57.865Z,52.52
2023-07-15T04:57:57.884Z,52.43
2023-07-15T04:58:57.867Z,52.48
2023-07-15T04:59:57.933Z,52.45
2023-07-15T05:00:58.098Z,52.60
2023-07-15T05:01:58.019Z,52.57
2023-07-15T05:02:58.051Z,52.51
2023-07-15T05:03:58.099Z,52.52
2023-07-15T05:04:58.085Z,52.36
2023-07-15T05:05:58.105Z,52.34
2023-07-15T05:06:58.126Z,52.21
2023-07-15T05:07:59.275Z,52.09
2023-07-15T05:08:58.164Z,52.00
2023-07-15T05:09:58.183Z,52.06
2023-07-15T05:10:58.195Z,51.89
2023-07-15T05:11:58.258Z,51.93
2023-07-15T05:12:58.267Z,51.88
2023-07-15T05:13:58.243Z,51.90
2023-07-15T05:14:58.259Z,51.74
2023-07-15T05:15:58.315Z,51.69
2023-07-15T05:16:58.307Z,51.48
2023-07-15T05:17:58.340Z,51.43
2023-07-15T05:18:58.334Z,51.51
2023-07-15T05:19:58.360Z,51.62
2023-07-15T05:20:58.371Z,51.64
2023-07-15T05:21:58.383Z,51.67
2023-07-15T05:22:58.397Z,51.74
2023-07-15T05:23:58.373Z,51.87
2023-07-15T05:24:58.385Z,51.83
2023-07-15T05:25:58.460Z,51.80
2023-07-15T05:26:58.425Z,51.72
2023-07-15T05:27:58.423Z,51.66
2023-07-15T05:28:58.384Z,51.55
2023-07-15T05:29:58.386Z,51.54
2023-07-15T05:30:58.421Z,51.49
2023-07-15T05:31:58.497Z,51.48
2023-07-15T05:32:58.444Z,51.18
2023-07-15T05:33:58.422Z,51.02
2023-07-15T05:34:58.420Z,51.02
2023-07-15T05:35:58.441Z,51.25
2023-07-15T05:36:58.472Z,51.35
2023-07-15T05:37:58.442Z,51.31
2023-07-15T05:38:59.274Z,51.29
2023-07-15T05:39:58.419Z,51.15
2023-07-15T05:40:58.434Z,51.14
2023-07-15T05:41:58.472Z,51.06
2023-07-15T05:42:58.491Z,51.01
2023-07-15T05:43:58.513Z,51.14
2023-07-15T05:44:58.535Z,50.98
2023-07-15T05:45:58.600Z,50.70
2023-07-15T05:46:58.726Z,50.59
2023-07-15T05:47:58.825Z,50.56
2023-07-15T05:48:58.755Z,50.39
2023-07-15T05:49:58.837Z,50.70
2023-07-15T05:50:58.880Z,50.65
2023-07-15T05:51:58.972Z,50.66
2023-07-15T05:52:58.947Z,50.63
2023-07-15T05:53:58.998Z,50.58
2023-07-15T05:54:59.051Z,50.85
2023-07-15T05:55:59.073Z,50.85
2023-07-15T05:56:59.092Z,50.59
2023-07-15T05:57:59.137Z,51.20
2023-07-15T05:58:59.163Z,50.60
2023-07-15T05:59:59.141Z,50.58
2023-07-15T06:00:59.226Z,50.34
2023-07-15T06:01:59.218Z,50.25
2023-07-15T06:02:59.290Z,50.33
2023-07-15T06:03:59.372Z,50.54
2023-07-15T06:04:59.268Z,50.36
2023-07-15T06:05:59.297Z,50.27
2023-07-15T06:06:59.284Z,50.31
2023-07-15T06:07:59.293Z,49.94
2023-07-15T06:08:59.278Z,49.89
2023-07-15T06:09:59.332Z,49.93
2023-07-15T06:10:59.316Z,49.55
2023-07-15T06:11:59.696Z,49.56
2023-07-15T06:12:59.294Z,49.26
2023-07-15T06:13:59.309Z,49.08
2023-07-15T06:14:59.322Z,49.29
2023-07-15T06:15:59.457Z,48.92
2023-07-15T06:16:59.504Z,48.94
2023-07-15T06:17:59.604Z,49.20
2023-07-15T06:18:59.578Z,48.85
2023-07-15T06:19:59.625Z,48.58
2023-07-15T06:20:59.703Z,49.09
2023-07-15T06:21:59.764Z,48.60
2023-07-15T06:22:59.876Z,48.69
2023-07-15T06:23:59.872Z,48.43
2023-07-15T06:24:59.897Z,48.64
2023-07-15T06:25:59.973Z,48.88
2023-07-15T06:27:00.000Z,48.65
2023-07-15T06:27:59.989Z,47.51
2023-07-15T06:29:00.046Z,47.86
2023-07-15T06:30:00.065Z,47.81
2023-07-15T06:31:00.194Z,47.91
2023-07-15T06:32:00.200Z,47.97
2023-07-15T06:33:00.315Z,47.95
2023-07-15T06:34:00.287Z,47.97
2023-07-15T06:35:00.332Z,48.31
2023-07-15T06:36:00.370Z,48.38
2023-07-15T06:37:00.409Z,48.05
2023-07-15T06:38:00.430Z,47.71
2023-07-15T06:39:00.511Z,48.48
2023-07-15T06:40:00.502Z,48.44
2023-07-15T06:41:00.517Z,48.30
2023-07-15T06:42:00.588Z,48.26
2023-07-15T06:43:00.625Z,48.29
2023-07-15T06:44:00.575Z,48.38
2023-07-15T06:45:00.665Z,48.34
2023-07-15T06:46:00.638Z,48.36
2023-07-15T06:47:00.710Z,47.90
2023-07-15T06:48:00.700Z,47.37
2023-07-15T06:49:00.734Z,47.82
2023-07-15T06:50:00.722Z,47.90
2023-07-15T06:51:00.756Z,47.99
2023-07-15T06:52:00.769Z,48.07
2023-07-15T06:53:00.776Z,47.85
2023-07-15T06:54:00.771Z,47.73
2023-07-15T06:55:00.786Z,47.35
2023-07-15T06:56:09.866Z,47.42
2023-07-15T06:57:01.854Z,47.35
2023-07-15T06:58:00.871Z,47.33
2023-07-15T06:59:00.875Z,47.37
2023-07-15T07:00:00.856Z,47.41
2023-07-15T07:01:00.925Z,47.22
2023-07-15T07:02:00.860Z,47.60
2023-07-15T07:03:00.883Z,47.39
2023-07-15T07:04:00.818Z,47.45
2023-07-15T07:05:00.808Z,47.11
2023-07-15T07:06:00.888Z,46.88
2023-07-15T07:07:00.838Z,47.18
2023-07-15T07:08:00.820Z,46.30
2023-07-15T07:09:00.858Z,46.42
2023-07-15T07:10:00.906Z,46.80
2023-07-15T07:11:00.968Z,46.89
2023-07-15T07:12:01.028Z,46.89
2023-07-15T07:13:01.036Z,46.21
2023-07-15T07:14:01.088Z,45.72
2023-07-15T07:15:01.119Z,45.79
2023-07-15T07:16:01.150Z,46.22
2023-07-15T07:17:01.207Z,46.61
2023-07-15T07:18:01.272Z,46.42
2023-07-15T07:19:01.257Z,46.30
2023-07-15T07:20:03.818Z,45.88
2023-07-15T07:21:01.305Z,46.54
2023-07-15T07:22:01.288Z,46.94
2023-07-15T07:23:01.454Z,46.80
2023-07-15T07:24:01.227Z,46.90
2023-07-15T07:25:01.261Z,46.70
2023-07-15T07:26:01.249Z,46.84
2023-07-15T07:27:01.200Z,46.75
2023-07-15T07:28:01.251Z,46.65
2023-07-15T07:29:01.195Z,46.25
2023-07-15T07:30:01.280Z,45.59
2023-07-15T07:31:01.250Z,46.00
2023-07-15T07:32:01.188Z,45.42
2023-07-15T07:33:01.205Z,45.04
2023-07-15T07:34:01.147Z,45.02
2023-07-15T07:35:01.195Z,44.83
2023-07-15T07:36:01.177Z,44.89
2023-07-15T07:37:02.956Z,44.89
2023-07-15T07:38:01.173Z,44.74
2023-07-15T07:39:01.148Z,44.47
2023-07-15T07:40:01.138Z,45.17
2023-07-15T07:41:01.153Z,45.17
2023-07-15T07:42:01.116Z,44.65
2023-07-15T07:43:01.135Z,44.93
2023-07-15T07:44:01.148Z,44.92
2023-07-15T07:45:01.122Z,45.56
2023-07-15T07:46:01.132Z,45.38
2023-07-15T07:47:01.133Z,45.52
2023-07-15T07:48:01.101Z,45.34
2023-07-15T07:49:01.073Z,45.52
2023-07-15T07:50:01.148Z,45.13
2023-07-15T07:51:01.059Z,44.63
2023-07-15T07:52:01.074Z,44.60
2023-07-15T07:53:01.036Z,44.51
2023-07-15T07:54:01.088Z,44.16
2023-07-15T07:55:01.056Z,44.09
2023-07-15T07:56:01.051Z,43.99
2023-07-15T07:57:01.037Z,44.07
2023-07-15T07:58:01.031Z,44.30
2023-07-15T07:59:01.045Z,43.93
2023-07-15T08:00:01.038Z,44.53
2023-07-15T08:01:00.989Z,42.99
2023-07-15T08:02:00.996Z,43.03
2023-07-15T08:03:01.088Z,43.85
2023-07-15T08:04:01.049Z,43.67
2023-07-15T08:05:00.998Z,44.43
2023-07-15T08:06:00.972Z,43.26
2023-07-15T08:07:00.954Z,42.31
2023-07-15T08:08:00.955Z,42.53
2023-07-15T08:09:00.960Z,43.69
2023-07-15T08:10:00.986Z,43.51
2023-07-15T08:11:00.953Z,43.73
2023-07-15T08:12:00.959Z,42.85
2023-07-15T08:13:00.915Z,43.22
2023-07-15T08:14:00.923Z,42.85
2023-07-15T08:15:00.896Z,42.41
2023-07-15T08:16:00.922Z,41.64
2023-07-15T08:17:00.955Z,41.71
2023-07-15T08:18:00.925Z,42.19
2023-07-15T08:19:00.961Z,42.58
2023-07-15T08:20:00.962Z,42.13
2023-07-15T08:21:00.988Z,42.24
2023-07-15T08:22:01.075Z,42.23
2023-07-15T08:23:01.220Z,41.66
2023-07-15T08:24:01.172Z,41.53
2023-07-15T08:25:01.198Z,39.49
2023-07-15T08:26:01.219Z,39.22
2023-07-15T08:27:01.235Z,39.54
2023-07-15T08:28:01.210Z,39.27
2023-07-15T08:29:01.253Z,41.11
2023-07-15T08:30:01.312Z,40.47
2023-07-15T08:31:01.361Z,39.96
2023-07-15T08:32:01.445Z,40.47
2023-07-15T08:33:01.598Z,40.51
2023-07-15T08:34:01.493Z,40.95
2023-07-15T08:35:01.551Z,40.65
2023-07-15T08:36:01.571Z,40.87
2023-07-15T08:37:01.618Z,40.78
2023-07-15T08:38:01.606Z,39.65
2023-07-15T08:39:01.633Z,39.57
2023-07-15T08:40:01.650Z,40.17
2023-07-15T08:41:01.671Z,40.92
2023-07-15T08:42:01.769Z,42.19
2023-07-15T08:43:01.717Z,40.35
2023-07-15T08:44:01.757Z,40.09
2023-07-15T08:45:01.746Z,40.47
2023-07-15T08:46:01.806Z,40.38
2023-07-15T08:47:01.784Z,39.40
2023-07-15T08:48:01.802Z,39.71
2023-07-15T08:49:01.808Z,39.69
2023-07-15T08:50:01.769Z,41.03
2023-07-15T08:51:01.816Z,38.90
2023-07-15T08:52:01.852Z,39.48
2023-07-15T08:53:01.913Z,39.29
2023-07-15T08:54:02.001Z,39.16
2023-07-15T08:55:01.934Z,39.35
2023-07-15T08:56:01.959Z,39.48
2023-07-15T08:57:01.963Z,39.38
2023-07-15T08:58:01.951Z,39.67
2023-07-15T08:59:01.954Z,39.38
2023-07-15T09:00:01.926Z,38.69
2023-07-15T09:01:01.945Z,38.25
2023-07-15T09:02:02.013Z,38.56
2023-07-15T09:03:02.064Z,40.04
2023-07-15T09:04:02.090Z,39.97
2023-07-15T09:05:02.153Z,39.35
2023-07-15T09:06:02.087Z,39.56
2023-07-15T09:07:02.200Z,39.64
2023-07-15T09:08:02.191Z,40.26
2023-07-15T09:09:02.326Z,40.06
2023-07-15T09:10:02.404Z,40.08
2023-07-15T09:11:02.315Z,39.46
2023-07-15T09:12:02.370Z,39.04
2023-07-15T09:13:02.470Z,39.40
2023-07-15T09:14:02.374Z,39.32
2023-07-15T09:15:02.431Z,39.63
2023-07-15T09:16:02.557Z,38.96
2023-07-15T09:17:02.551Z,41.81
2023-07-15T09:18:02.595Z,39.71
2023-07-15T09:19:02.575Z,39.93
2023-07-15T09:20:02.583Z,41.45
2023-07-15T09:21:02.606Z,40.08
2023-07-15T09:22:02.577Z,39.16
2023-07-15T09:23:02.803Z,39.99
2023-07-15T09:24:02.615Z,39.84
2023-07-15T09:25:02.655Z,40.57
2023-07-15T09:26:02.676Z,39.88
2023-07-15T09:27:02.841Z,39.60
2023-07-15T09:28:02.728Z,39.96
2023-07-15T09:29:02.794Z,40.66
2023-07-15T09:30:02.851Z,39.70
2023-07-15T09:31:02.914Z,41.61
2023-07-15T09:32:02.957Z,39.74
2023-07-15T09:33:02.952Z,39.16
2023-07-15T09:34:02.934Z,38.83
2023-07-15T09:35:03.046Z,40.21
2023-07-15T09:36:03.108Z,40.56
2023-07-15T09:37:03.098Z,38.24
2023-07-15T09:38:03.060Z,38.64
2023-07-15T09:39:03.131Z,39.79
2023-07-15T09:40:03.185Z,39.27
2023-07-15T09:41:03.216Z,39.25
2023-07-15T09:42:03.276Z,40.27
2023-07-15T09:43:03.353Z,39.33
2023-07-15T09:44:03.410Z,39.89
2023-07-15T09:45:03.452Z,40.46
2023-07-15T09:46:03.522Z,40.27
2023-07-15T09:47:03.537Z,40.54
2023-07-15T09:48:03.680Z,40.70
2023-07-15T09:49:03.665Z,39.00
2023-07-15T09:50:03.691Z,40.50
2023-07-15T09:51:03.768Z,40.39
2023-07-15T09:52:03.844Z,39.41
2023-07-15T09:53:03.938Z,41.58
2023-07-15T09:54:03.927Z,39.37
2023-07-15T09:55:03.927Z,38.50
2023-07-15T09:56:03.964Z,38.50
2023-07-15T09:57:04.002Z,40.59
2023-07-15T09:58:03.968Z,39.87
2023-07-15T09:59:03.958Z,39.74
2023-07-15T10:00:04.093Z,37.99
2023-07-15T10:01:04.223Z,37.98
2023-07-15T10:02:04.157Z,37.82
2023-07-15T10:03:04.238Z,36.79
2023-07-15T10:04:04.296Z,36.17
2023-07-15T10:05:04.371Z,37.31
2023-07-15T10:06:04.350Z,36.14
2023-07-15T10:07:04.388Z,37.58
2023-07-15T10:08:04.424Z,37.94
2023-07-15T10:09:04.392Z,36.87
2023-07-15T10:10:04.449Z,38.52
2023-07-15T10:11:04.474Z,38.40
2023-07-15T10:12:04.553Z,38.30
2023-07-15T10:13:04.553Z,39.14
2023-07-15T10:14:04.577Z,39.08
2023-07-15T10:15:04.642Z,36.83
2023-07-15T10:16:04.683Z,36.00
2023-07-15T10:17:04.673Z,36.69
2023-07-15T10:18:04.750Z,37.88
2023-07-15T10:19:04.730Z,38.88
2023-07-15T10:20:04.778Z,38.93
2023-07-15T10:21:04.790Z,37.91
2023-07-15T10:22:04.805Z,37.45
2023-07-15T10:23:04.918Z,38.17
2023-07-15T10:24:04.848Z,37.01
2023-07-15T10:25:04.829Z,37.25
2023-07-15T10:26:04.813Z,36.37
2023-07-15T10:27:04.855Z,38.01
2023-07-15T10:28:04.917Z,37.12
2023-07-15T10:29:04.979Z,35.62
2023-07-15T10:30:05.030Z,37.50
2023-07-15T10:31:06.651Z,36.51
2023-07-15T10:32:05.128Z,35.39
2023-07-15T10:33:05.175Z,35.73
2023-07-15T10:34:05.129Z,35.94
2023-07-15T10:35:05.156Z,36.16
2023-07-15T10:36:05.228Z,36.59
2023-07-15T10:37:05.304Z,37.48
2023-07-15T10:38:05.345Z,35.03
2023-07-15T10:39:05.390Z,34.72
2023-07-15T10:40:05.367Z,35.98
2023-07-15T10:41:05.678Z,35.35
2023-07-15T10:42:05.464Z,35.90
2023-07-15T10:43:05.466Z,34.97
2023-07-15T10:44:05.478Z,36.37
2023-07-15T10:45:05.527Z,35.17
2023-07-15T10:46:05.514Z,35.82
2023-07-15T10:47:05.600Z,34.97
2023-07-15T10:48:05.608Z,34.86
2023-07-15T10:49:05.610Z,36.42
2023-07-15T10:50:05.666Z,35.50
2023-07-15T10:51:05.695Z,35.54
2023-07-15T10:52:05.719Z,35.70
2023-07-15T10:53:05.738Z,36.14
2023-07-15T10:54:05.717Z,37.12
2023-07-15T10:55:05.761Z,38.59
2023-07-15T10:56:05.809Z,38.57
2023-07-15T10:57:05.881Z,39.20
2023-07-15T10:58:05.949Z,38.17
2023-07-15T10:59:05.944Z,37.26
2023-07-15T11:00:08.714Z,37.85
2023-07-15T11:01:05.940Z,38.08
2023-07-15T11:02:05.953Z,36.23
2023-07-15T11:03:05.973Z,35.53
2023-07-15T11:04:05.921Z,35.05
2023-07-15T11:05:06.016Z,35.31
2023-07-15T11:06:07.906Z,35.23
2023-07-15T11:07:05.913Z,35.79
2023-07-15T11:08:05.909Z,33.35
2023-07-15T11:09:05.880Z,35.55
2023-07-15T11:10:05.865Z,33.51
2023-07-15T11:11:05.857Z,34.24
2023-07-15T11:12:08.111Z,34.17
2023-07-15T11:13:05.860Z,33.90
2023-07-15T11:14:05.869Z,35.19
2023-07-15T11:15:05.810Z,35.92
2023-07-15T11:16:05.917Z,37.00
2023-07-15T11:17:05.878Z,37.06
2023-07-15T11:18:05.873Z,35.96
2023-07-15T11:19:05.799Z,35.51
2023-07-15T11:20:05.813Z,33.90
2023-07-15T11:21:05.799Z,34.38
2023-07-15T11:22:05.801Z,31.12
2023-07-15T11:23:05.882Z,31.74
2023-07-15T11:24:05.838Z,33.55
2023-07-15T11:25:05.773Z,32.32
2023-07-15T11:26:05.765Z,31.15
2023-07-15T11:27:05.764Z,29.78
2023-07-15T11:28:05.779Z,29.70
2023-07-15T11:29:05.775Z,29.97
2023-07-15T11:30:05.727Z,32.04
2023-07-15T11:31:05.810Z,32.11
2023-07-15T11:32:05.756Z,29.84
2023-07-15T11:33:05.724Z,29.22
2023-07-15T11:34:05.695Z,28.74
2023-07-15T11:35:05.687Z,28.51
2023-07-15T11:36:05.692Z,27.79
2023-07-15T11:37:05.699Z,27.71
2023-07-15T11:38:05.695Z,28.99
2023-07-15T11:39:05.702Z,27.80
2023-07-15T11:40:06.610Z,27.81
2023-07-15T11:41:05.678Z,28.90
2023-07-15T11:42:05.663Z,29.80
2023-07-15T11:43:05.645Z,27.47
2023-07-15T11:44:05.683Z,28.57
2023-07-15T11:45:05.616Z,27.89
2023-07-15T11:46:05.709Z,28.99
2023-07-15T11:47:05.880Z,28.27
2023-07-15T11:48:05.640Z,26.87
2023-07-15T11:49:05.642Z,26.35
2023-07-15T11:50:05.622Z,26.44
2023-07-15T11:51:05.626Z,25.44
2023-07-15T11:52:05.597Z,25.20
2023-07-15T11:53:05.619Z,24.39
2023-07-15T11:54:05.574Z,24.18
2023-07-15T11:55:05.587Z,23.75
2023-07-15T11:56:05.580Z,23.95
2023-07-15T11:57:05.582Z,24.76
2023-07-15T11:58:05.571Z,24.26
2023-07-15T11:59:05.588Z,24.01
2023-07-15T12:00:05.564Z,23.88
2023-07-15T12:01:05.553Z,22.42
2023-07-15T12:02:05.605Z,22.73
2023-07-15T12:03:05.687Z,22.97
2023-07-15T12:04:05.539Z,22.99
2023-07-15T12:05:05.502Z,23.09
2023-07-15T12:06:05.500Z,23.24
2023-07-15T12:07:05.555Z,23.36
2023-07-15T12:08:05.507Z,23.11
2023-07-15T12:09:05.480Z,22.81
2023-07-15T12:10:05.552Z,23.56
2023-07-15T12:11:05.496Z,23.16
2023-07-15T12:12:05.486Z,23.72
2023-07-15T12:13:05.486Z,22.80
2023-07-15T12:14:05.519Z,23.14
2023-07-15T12:15:05.558Z,22.73
2023-07-15T12:16:05.629Z,23.31
2023-07-15T12:17:05.797Z,22.16
2023-07-15T12:18:05.695Z,22.90
2023-07-15T12:19:05.656Z,23.21
2023-07-15T12:20:05.721Z,22.85
2023-07-15T12:21:05.728Z,23.14
2023-07-15T12:22:05.788Z,22.77
2023-07-15T12:23:05.912Z,22.30
2023-07-15T12:24:05.793Z,21.93
2023-07-15T12:25:05.835Z,21.97
2023-07-15T12:26:05.883Z,22.12
2023-07-15T12:27:05.907Z,22.17
2023-07-15T12:28:05.991Z,22.58
2023-07-15T12:29:05.977Z,22.77
2023-07-15T12:30:06.039Z,22.81
2023-07-15T12:31:06.097Z,22.60
2023-07-15T12:32:06.112Z,22.06
2023-07-15T12:33:06.152Z,23.10
2023-07-15T12:34:06.126Z,22.06
2023-07-15T12:35:06.171Z,22.53
2023-07-15T12:36:06.214Z,22.33
2023-07-15T12:37:06.290Z,22.87
2023-07-15T12:38:06.281Z,22.24
2023-07-15T12:39:06.321Z,22.27
2023-07-15T12:40:06.361Z,22.36
2023-07-15T12:41:06.415Z,22.18
2023-07-15T12:42:06.419Z,22.45
2023-07-15T12:43:06.440Z,22.34
2023-07-15T12:44:06.488Z,22.53
2023-07-15T12:45:06.541Z,22.17
2023-07-15T12:46:06.613Z,22.49
2023-07-15T12:47:06.641Z,21.94
2023-07-15T12:48:06.668Z,22.20
2023-07-15T12:49:06.679Z,22.60
2023-07-15T12:50:06.699Z,21.70
2023-07-15T12:51:06.715Z,22.20
2023-07-15T12:52:06.719Z,21.84
2023-07-15T12:53:06.740Z,21.82